首页
METAR-TAF:

METAR-TAF

机场 :

蒙特利尔皮埃尔·埃利奥特·特鲁多国际机场

蒙特利尔特鲁多, 魁北克, 加拿大

纬度: 45-28N, 经度: 073-45W, 海拔: 31米

当前天气观测

该预报发布于1小时和12分钟前的06:00 UTC
风速3节,风向南转南东
温度 12°C
湿度 71%
气压 1017 hPa
能見度: 24.1公里
阴天层高于9000英尺
小毛毛雨

METAR: CYUL 190600Z 16003KT 15SM -DZ OVC090 12/07 A3003 RMK AS8 SLP172

时间: 03:12 (07:12 UTC)

预报

该预报发布于1小时和33分钟前的05:39 UTC
预报有效从19日的 06点(UTC)到 20日的 06点(UTC)
风速3节,风向多变
能見度: 10公里
阴天层高于10000英尺
短暂存在
从 19日的 06点(UTC)到 19日的 11点(UTC)
能見度: 10公里
小阵雨
成为
从 19日的 09点(UTC)到 19日的 11点(UTC)
风速9节,风向
从 19日的 1100点(UTC)
风速9节,风向
能見度: 10公里
阴天层高于4000英尺
小雨
从 19日的 1300点(UTC)
风速10节,风向
能見度: 9.7公里
多云层高于800英尺
阴天层高于1500英尺
小雨, 轻雾
从 19日的 1600点(UTC)
风速8节,风向
能見度: 10公里
多云层高于800英尺
阴天层高于1200英尺
从 19日的 2000点(UTC)
风速10节,风向北转东北
能見度: 10公里
多云层高于1500英尺
从 20日的 0500点(UTC)
风速10节,风向,有时为20节阵风
能見度: 6.4公里
阴天层高于600英尺
阵雨, 轻雾
几率 40%
从 20日的 05点(UTC)到 20日的 06点(UTC)
风速15节,风向多变,有时为25节阵风
能見度: 1.6公里
层高于400英尺
雷暴, 雨, 轻雾

TAF: CYUL 190539Z 1906/2006 VRB03KT P6SM OVC100 TEMPO 1906/1911 P6SM -SHRA BECMG 1909/1911 10009KT FM191100 08009KT P6SM -RA OVC040 FM191300 08010KT 6SM -RA BR BKN008 OVC015 FM191600 09008KT P6SM BKN008 OVC012 FM192000 03010KT P6SM BKN015 FM200500 09010G20KT 4SM SHRA BR OVC006 PROB40 2005/2006 VRB15G25KT 1SM TSRA BR VV004 RMK NXT FCST BY 190900Z

超过4000个机场的气象观测和天气预报(METAR&TAF报告)。

可查询的气象台以黄色和红色小点在地图上表示。

将鼠标移到小点上方,可查看气象台名称。

然后点击查看天气观测和预报。

如需切换地图:点击带黑十字的绿色按钮放大地图;点击带横线的绿色按钮缩小地图;或者点击绿色箭头查看邻近地区的地图。


METAR-TAF: